Time;durP1;ratioP1;P1;durP2;ratioP2;P2;SDS_P1;SDS_P2;PMS_P1;PMS_P2;Temp;Humidity;BMP_temperature;BMP_pressure;BME280_temperature;BME280_humidity;BME280_pressure;Samples;Min_cycle;Max_cycle;Signal;HPM_P1;HPM_P2
2022/01/16 00:04:07;;;;;;;98.57;55.95;;;;;;;3.78;100.00;102351.44;10500347;28;20043;-75
2022/01/16 00:09:07;;;;;;;99.63;58.58;;;;;;;3.83;100.00;102347.44;10516339;28;20032;-76
2022/01/16 00:14:08;;;;;;;112.60;60.33;;;;;;;3.89;100.00;102354.13;10499587;28;20037;-75
2022/01/16 00:19:08;;;;;;;135.63;59.50;;;;;;;3.82;100.00;102353.75;10517091;28;20060;-75
2022/01/16 00:24:09;;;;;;;124.60;58.22;;;;;;;3.87;100.00;102335.50;10499405;28;20449;-75
2022/01/16 00:29:11;;;;;;;109.15;54.88;;;;;;;3.91;100.00;102328.94;10499215;28;20052;-75
2022/01/16 00:34:12;;;;;;;116.93;54.75;;;;;;;3.85;100.00;102328.53;10500606;28;20044;-75
2022/01/16 00:39:12;;;;;;;102.65;49.92;;;;;;;3.90;100.00;102329.91;10498857;28;20086;-75
2022/01/16 00:44:13;;;;;;;122.45;64.40;;;;;;;3.88;100.00;102331.00;10498616;28;20044;-75
2022/01/16 00:49:13;;;;;;;110.20;57.35;;;;;;;3.77;100.00;102339.03;10498559;28;20482;-76
2022/01/16 00:54:13;;;;;;;133.90;67.22;;;;;;;3.78;100.00;102321.97;10499565;28;20118;-75
2022/01/16 00:59:14;;;;;;;129.32;62.17;;;;;;;3.81;100.00;102317.22;10498695;28;20032;-75
2022/01/16 01:04:15;;;;;;;124.53;56.10;;;;;;;3.84;100.00;102284.81;10505674;28;20063;-75
2022/01/16 01:09:15;;;;;;;109.70;55.35;;;;;;;3.82;100.00;102291.28;10509546;28;20032;-75
2022/01/16 01:14:38;;;;;;;102.40;52.22;;;;;;;3.81;100.00;102302.97;10508096;28;20064;-75
2022/01/16 01:19:38;;;;;;;103.97;57.88;;;;;;;3.83;100.00;102311.72;10512447;28;20047;-74
2022/01/16 01:24:38;;;;;;;108.47;59.85;;;;;;;3.88;100.00;102305.03;10514059;28;20035;-75
2022/01/16 01:29:44;;;;;;;118.65;56.97;;;;;;;3.88;100.00;102310.41;10498173;28;20494;-75
2022/01/16 01:34:44;;;;;;;101.00;57.00;;;;;;;3.92;100.00;102324.41;10499991;28;20135;-75
2022/01/16 01:39:45;;;;;;;92.95;52.80;;;;;;;3.90;100.00;102300.44;10500055;28;20132;-75
2022/01/16 01:55:25;;;;;;;75.82;48.30;;;;;;;3.75;100.00;102282.00;10483398;28;20054;-76
2022/01/16 02:00:25;;;;;;;91.43;56.58;;;;;;;3.78;100.00;102304.06;10498287;28;20044;-75
2022/01/16 02:05:26;;;;;;;68.60;47.78;;;;;;;3.79;100.00;102319.16;10498518;28;20094;-76
2022/01/16 02:10:26;;;;;;;82.25;49.97;;;;;;;3.73;100.00;102322.28;10497525;28;20036;-75
2022/01/16 02:28:00;;;;;;;;;;;;;;;3.60;100.00;102329.56;10499481;28;20467;-75
2022/01/16 02:31:36;;;;;;;73.72;49.22;;;;;;;3.49;100.00;102331.25;10503451;28;19920;-75
2022/01/16 02:36:44;;;;;;;77.10;48.95;;;;;;;3.48;100.00;102342.94;10502583;28;20360;-75
2022/01/16 02:41:45;;;;;;;86.40;53.50;;;;;;;3.30;100.00;102330.94;10514227;28;20028;-75
2022/01/16 02:46:45;;;;;;;84.03;52.22;;;;;;;3.33;100.00;102317.31;10528233;28;20029;-75
2022/01/16 02:51:46;;;;;;;66.90;44.60;;;;;;;3.30;100.00;102317.53;10528940;28;20039;-75
2022/01/16 02:56:48;;;;;;;77.32;47.58;;;;;;;3.29;100.00;102302.47;10514405;28;20036;-76
2022/01/16 03:01:48;;;;;;;61.72;39.65;;;;;;;3.25;100.00;102292.94;10504057;28;20041;-75
2022/01/16 03:06:49;;;;;;;84.38;49.50;;;;;;;3.20;100.00;102281.72;10517810;28;20044;-74
2022/01/16 03:11:50;;;;;;;77.93;48.97;;;;;;;3.22;100.00;102277.97;10519097;28;20045;-75
2022/01/16 03:16:52;;;;;;;75.35;44.40;;;;;;;3.21;100.00;102272.72;10493472;28;20086;-75
2022/01/16 03:21:57;;;;;;;67.03;44.35;;;;;;;3.24;100.00;102259.94;10512372;28;20461;-73
2022/01/16 03:27:00;;;;;;;75.75;43.45;;;;;;;3.25;100.00;102252.78;10518030;28;20052;-75
2022/01/16 03:32:01;;;;;;;71.63;42.65;;;;;;;3.27;100.00;102258.88;10504698;28;20557;-74
2022/01/16 03:37:01;;;;;;;63.28;42.25;;;;;;;3.35;100.00;102253.81;10516148;28;20032;-75
2022/01/16 03:42:02;;;;;;;74.88;44.53;;;;;;;3.39;100.00;102241.88;10530011;28;20052;-75
2022/01/16 03:47:03;;;;;;;66.50;44.15;;;;;;;3.43;100.00;102246.03;10508995;28;20024;-75
2022/01/16 03:52:03;;;;;;;60.78;39.13;;;;;;;3.43;100.00;102242.50;10506188;28;20032;-74
2022/01/16 03:57:04;;;;;;;62.30;42.63;;;;;;;3.42;100.00;102238.97;10508344;28;20036;-77
2022/01/16 04:02:05;;;;;;;57.25;42.70;;;;;;;3.42;100.00;102244.31;10503736;28;20045;-75
2022/01/16 04:07:06;;;;;;;63.63;42.65;;;;;;;3.49;100.00;102244.69;10517096;28;20116;-75
2022/01/16 04:12:09;;;;;;;53.42;37.75;;;;;;;3.59;100.00;102240.34;10500326;28;20463;-75
2022/01/16 04:17:11;;;;;;;53.17;36.40;;;;;;;3.69;100.00;102244.00;10499789;28;20445;-76
2022/01/16 04:22:12;;;;;;;60.15;36.65;;;;;;;3.79;100.00;102246.81;10501359;28;20051;-75
2022/01/16 04:27:12;;;;;;;56.17;33.40;;;;;;;3.88;100.00;102245.25;10515481;28;20463;-76
2022/01/16 04:32:13;;;;;;;48.13;33.33;;;;;;;3.99;100.00;102241.69;10501425;28;20049;-76
2022/01/16 04:37:13;;;;;;;50.42;33.95;;;;;;;4.13;100.00;102238.78;10499934;28;20040;-75
2022/01/16 04:47:33;;;;;;;51.33;23.58;;;;;;;4.40;100.00;102236.59;10513052;28;20033;-75
2022/01/16 04:52:33;;;;;;;13.00;11.05;;;;;;;4.72;100.00;102225.00;10500221;28;20032;-75
2022/01/16 04:57:35;;;;;;;18.83;9.55;;;;;;;5.10;100.00;102234.38;10514780;28;20094;-75
2022/01/16 05:02:35;;;;;;;12.02;9.45;;;;;;;5.40;100.00;102235.47;10499264;28;20136;-75
2022/01/16 05:07:36;;;;;;;15.95;8.60;;;;;;;5.58;100.00;102225.81;10499159;28;20115;-75
2022/01/16 05:12:39;;;;;;;16.63;8.13;;;;;;;5.73;100.00;102231.72;10497948;28;20047;-74
2022/01/16 05:17:39;;;;;;;15.00;8.57;;;;;;;5.81;100.00;102230.06;10498370;28;20028;-75
2022/01/16 05:22:40;;;;;;;13.52;5.93;;;;;;;5.93;100.00;102233.53;10498832;28;20070;-75
2022/01/16 05:27:40;;;;;;;10.95;5.55;;;;;;;6.08;100.00;102231.34;10515037;28;20039;-75
2022/01/16 05:32:41;;;;;;;10.68;5.78;;;;;;;6.16;100.00;102220.78;10500494;28;20056;-75
2022/01/16 05:37:41;;;;;;;15.48;4.30;;;;;;;6.24;100.00;102238.91;10498980;28;20033;-75
2022/01/16 05:42:42;;;;;;;7.10;3.85;;;;;;;6.32;100.00;102236.41;10514309;28;20051;-75
2022/01/16 05:47:42;;;;;;;7.07;3.63;;;;;;;6.37;100.00;102238.66;10506279;28;20037;-75
2022/01/16 05:52:43;;;;;;;6.38;3.70;;;;;;;6.46;100.00;102241.38;10496524;28;20033;-75
2022/01/16 05:57:44;;;;;;;7.47;3.05;;;;;;;6.50;100.00;102247.34;10497875;28;20086;-75
2022/01/16 06:02:44;;;;;;;3.55;2.97;;;;;;;6.53;100.00;102247.06;10496704;28;20480;-75
2022/01/16 06:07:50;;;;;;;7.28;3.90;;;;;;;6.55;100.00;102236.19;10499296;28;20131;-75
2022/01/16 06:12:51;;;;;;;11.43;5.80;;;;;;;6.56;100.00;102240.56;10503906;28;20072;-75
2022/01/16 06:17:52;;;;;;;6.65;4.63;;;;;;;6.52;100.00;102246.22;10507120;28;20375;-75
2022/01/16 06:22:53;;;;;;;11.68;4.75;;;;;;;6.56;100.00;102248.63;10503704;28;20033;-75
2022/01/16 06:27:53;;;;;;;8.82;4.70;;;;;;;6.60;100.00;102247.34;10520129;28;20032;-76
2022/01/16 06:32:54;;;;;;;11.52;4.80;;;;;;;6.66;100.00;102254.88;10504847;28;20058;-75
2022/01/16 06:37:54;;;;;;;12.10;5.78;;;;;;;6.70;100.00;102264.38;10504220;28;20123;-75
2022/01/16 06:42:54;;;;;;;4.45;4.05;;;;;;;6.71;100.00;102269.63;10504104;28;20503;-76
2022/01/16 06:47:55;;;;;;;7.20;5.57;;;;;;;6.69;100.00;102273.44;10503770;28;20032;-75
2022/01/16 06:52:56;;;;;;;10.48;5.85;;;;;;;6.69;100.00;102293.13;10503670;28;20036;-76
2022/01/16 06:57:56;;;;;;;8.38;5.50;;;;;;;6.71;100.00;102301.09;10502912;28;20028;-75
2022/01/16 07:02:57;;;;;;;15.50;6.85;;;;;;;6.73;100.00;102308.06;10485826;28;20036;-75
2022/01/16 07:07:57;;;;;;;15.43;6.65;;;;;;;6.78;100.00;102310.31;10503994;28;20072;-75
2022/01/16 07:12:57;;;;;;;14.85;5.35;;;;;;;6.77;100.00;102314.00;10485551;28;20127;-75
2022/01/16 07:17:58;;;;;;;14.02;6.53;;;;;;;6.77;100.00;102326.63;10503411;28;20072;-76
2022/01/16 07:22:58;;;;;;;9.82;6.40;;;;;;;6.75;100.00;102348.28;10518408;28;20432;-75
2022/01/16 07:27:59;;;;;;;6.18;5.57;;;;;;;6.75;100.00;102349.13;10501607;28;20124;-76
2022/01/16 07:32:59;;;;;;;19.08;6.68;;;;;;;6.78;100.00;102344.47;10504842;28;20506;-75
2022/01/16 07:38:00;;;;;;;14.07;7.32;;;;;;;6.75;100.00;102349.13;10502667;28;20094;-76
2022/01/16 07:43:00;;;;;;;11.05;8.38;;;;;;;6.78;100.00;102360.63;10502522;28;20060;-73
2022/01/16 07:48:01;;;;;;;17.75;8.13;;;;;;;6.73;100.00;102355.63;10502427;28;20060;-76
2022/01/16 07:53:01;;;;;;;11.02;8.13;;;;;;;6.78;100.00;102363.31;10504244;28;20420;-76
2022/01/16 07:58:02;;;;;;;8.25;6.00;;;;;;;6.74;100.00;102379.75;10504196;28;20482;-77
2022/01/16 08:03:02;;;;;;;11.45;6.57;;;;;;;6.84;100.00;102370.84;10508887;28;20031;-77
2022/01/16 08:08:03;;;;;;;15.50;6.82;;;;;;;6.81;100.00;102379.19;10515115;28;20032;-76
2022/01/16 08:13:04;;;;;;;13.98;7.18;;;;;;;6.85;100.00;102372.53;10501586;28;20028;-76
2022/01/16 08:18:04;;;;;;;11.55;7.13;;;;;;;6.86;100.00;102371.53;10501301;28;20119;-75
2022/01/16 08:23:05;;;;;;;12.75;8.05;;;;;;;6.84;100.00;102369.00;10500993;28;20474;-74
2022/01/16 08:28:05;;;;;;;23.23;14.02;;;;;;;6.68;100.00;102369.50;10451798;28;20041;-75
2022/01/16 08:33:05;;;;;;;33.50;19.80;;;;;;;6.48;100.00;102365.91;10498582;28;20056;-75
2022/01/16 08:38:06;;;;;;;38.45;21.58;;;;;;;6.29;100.00;102361.28;10499846;28;20455;-75
2022/01/16 08:43:09;;;;;;;53.58;26.15;;;;;;;6.13;100.00;102374.34;10499613;28;20059;-75
2022/01/16 08:48:09;;;;;;;46.92;29.13;;;;;;;6.01;100.00;102372.72;10500189;28;20050;-75
2022/01/16 08:53:10;;;;;;;54.83;30.98;;;;;;;5.96;100.00;102377.63;10500749;28;20386;-77
2022/01/16 08:58:10;;;;;;;56.08;32.95;;;;;;;5.91;100.00;102399.50;10499139;28;20472;-74
2022/01/16 09:03:11;;;;;;;60.22;32.63;;;;;;;5.90;100.00;102407.69;10498901;28;20028;-74
2022/01/16 09:08:12;;;;;;;53.13;30.20;;;;;;;5.81;100.00;102401.25;10514780;28;20028;-75
2022/01/16 09:13:15;;;;;;;54.28;33.50;;;;;;;5.90;100.00;102399.63;10500174;28;20027;-74
2022/01/16 09:18:16;;;;;;;71.45;34.70;;;;;;;5.96;100.00;102401.81;10514720;28;20035;-75
2022/01/16 09:23:17;;;;;;;56.85;35.13;;;;;;;6.00;100.00;102414.88;10498379;28;20028;-74
2022/01/16 09:28:17;;;;;;;57.97;33.97;;;;;;;5.98;100.00;102427.59;10498564;28;20032;-75
2022/01/16 09:33:18;;;;;;;65.75;34.95;;;;;;;6.05;100.00;102431.47;10501783;28;20052;-75
2022/01/16 09:38:18;;;;;;;51.28;32.22;;;;;;;6.05;100.00;102444.06;10515865;28;20048;-75
2022/01/16 09:43:19;;;;;;;57.17;34.60;;;;;;;6.00;100.00;102443.63;10512998;28;20443;-75
2022/01/16 09:48:19;;;;;;;53.00;35.28;;;;;;;5.91;100.00;102453.28;10530055;28;20363;-75
2022/01/16 09:53:21;;;;;;;66.95;37.88;;;;;;;5.83;100.00;102453.91;10507130;28;20466;-74
2022/01/16 09:58:21;;;;;;;80.25;38.35;;;;;;;5.78;100.00;102455.28;10507034;28;20036;-74
2022/01/16 10:03:41;;;;;;;67.55;37.95;;;;;;;5.77;100.00;102465.16;10506701;28;20379;-74
2022/01/16 10:08:45;;;;;;;61.70;34.88;;;;;;;5.77;100.00;102454.41;10506385;28;20024;-74
2022/01/16 10:14:01;;;;;;;82.53;36.88;;;;;;;5.75;100.00;102464.44;10507017;28;20047;-75
2022/01/16 10:19:02;;;;;;;85.78;41.47;;;;;;;5.82;100.00;102480.91;10530383;28;20028;-75
2022/01/16 10:24:35;;;;;;;73.65;38.17;;;;;;;6.12;100.00;102482.91;10529483;28;20386;-75
2022/01/16 10:29:43;;;;;;;58.78;28.45;;;;;;;6.28;100.00;102486.00;10498044;28;20055;-75
2022/01/16 10:34:45;;;;;;;78.32;42.33;;;;;;;6.39;100.00;102487.78;10504566;28;20033;-74
2022/01/16 10:40:01;;;;;;;83.03;42.10;;;;;;;6.37;100.00;102488.88;10503320;28;20036;-75
2022/01/16 10:45:12;;;;;;;73.50;38.63;;;;;;;6.26;100.00;102479.91;10504309;28;20025;-75
2022/01/16 10:50:13;;;;;;;85.25;37.72;;;;;;;6.21;100.00;102468.66;10454680;28;20045;-75
2022/01/16 10:55:14;;;;;;;76.13;41.67;;;;;;;6.29;100.00;102459.97;10503753;28;20063;-75
2022/01/16 11:00:21;;;;;;;83.28;42.35;;;;;;;6.37;100.00;102464.69;10503413;28;20414;-77
2022/01/16 11:05:22;;;;;;;70.55;38.15;;;;;;;6.57;100.00;102466.50;10503926;28;20028;-76
2022/01/16 11:10:30;;;;;;;72.55;37.47;;;;;;;6.82;100.00;102475.13;10502834;28;20128;-75
2022/01/16 11:15:31;;;;;;;69.20;35.80;;;;;;;7.12;100.00;102463.50;10521505;28;20024;-77
2022/01/16 11:20:35;;;;;;;60.70;29.52;;;;;;;6.99;100.00;102483.44;10519349;28;20100;-76
2022/01/16 11:25:38;;;;;;;51.42;31.38;;;;;;;6.97;100.00;102481.88;10485240;28;20028;-76
2022/01/16 11:30:41;;;;;;;45.97;27.10;;;;;;;7.93;100.00;102477.69;10468512;28;20040;-76
2022/01/16 11:35:53;;;;;;;41.25;23.05;;;;;;;7.79;100.00;102467.34;10484267;28;20421;-76
2022/01/16 11:40:54;;;;;;;39.53;23.95;;;;;;;7.82;100.00;102461.66;10487609;28;20097;-75
2022/01/16 11:45:55;;;;;;;42.63;23.42;;;;;;;7.92;100.00;102457.97;10517924;28;20067;-77
2022/01/16 11:50:55;;;;;;;36.22;21.35;;;;;;;7.96;100.00;102457.69;10500453;28;20593;-75
2022/01/16 11:55:56;;;;;;;28.70;15.45;;;;;;;8.05;100.00;102468.47;10483852;28;20028;-75
2022/01/16 12:00:56;;;;;;;31.40;14.85;;;;;;;8.10;100.00;102473.44;10516275;28;20088;-73
2022/01/16 12:06:31;;;;;;;17.25;8.77;;;;;;;8.00;100.00;102476.13;10499919;28;20068;-85
2022/01/16 12:11:36;;;;;;;6.68;5.72;;;;;;;8.02;100.00;102465.22;10502376;28;20029;-75
2022/01/16 12:16:40;;;;;;;9.82;5.63;;;;;;;8.14;100.00;102475.72;10516566;28;20025;-76
2022/01/16 12:21:52;;;;;;;4.22;3.83;;;;;;;8.23;100.00;102475.84;10499867;28;20058;-75
2022/01/16 12:26:52;;;;;;;7.75;3.97;;;;;;;8.16;100.00;102487.19;10499617;28;20060;-77
2022/01/16 12:31:52;;;;;;;5.30;3.63;;;;;;;8.10;100.00;102482.41;10517027;28;20146;-74
2022/01/16 12:36:53;;;;;;;4.07;3.67;;;;;;;8.18;100.00;102488.91;10508677;28;20035;-77
2022/01/16 12:41:55;;;;;;;8.75;4.60;;;;;;;8.13;100.00;102484.78;10450873;28;20087;-77
2022/01/16 12:46:57;;;;;;;7.30;6.05;;;;;;;8.12;100.00;102490.34;10498829;28;20093;-75
2022/01/16 12:51:57;;;;;;;7.72;6.88;;;;;;;8.06;100.00;102488.22;10498439;28;20056;-76
2022/01/16 12:57:01;;;;;;;10.05;6.70;;;;;;;8.00;100.00;102476.13;10498997;28;20430;-75
2022/01/16 13:02:03;;;;;;;10.43;8.27;;;;;;;7.96;100.00;102457.69;10514428;28;20119;-75
2022/01/16 13:07:09;;;;;;;13.38;9.55;;;;;;;7.90;100.00;102476.13;10498900;28;20064;-76
2022/01/16 13:12:12;;;;;;;17.10;10.48;;;;;;;7.85;100.00;102472.19;10514501;28;20201;-75
2022/01/16 13:17:13;;;;;;;27.33;12.73;;;;;;;7.84;100.00;102459.66;10498665;28;20036;-77
2022/01/16 13:22:15;;;;;;;18.52;13.38;;;;;;;7.83;100.00;102460.66;10498615;28;20028;-78
2022/01/16 13:27:23;;;;;;;26.50;15.63;;;;;;;7.92;100.00;102466.06;10497474;28;20036;-78
2022/01/16 13:32:30;;;;;;;28.38;17.00;;;;;;;7.88;100.00;102475.44;10500592;28;20048;-76
2022/01/16 13:37:35;;;;;;;35.35;19.92;;;;;;;7.96;100.00;102463.09;10497837;28;20037;-77
2022/01/16 13:42:51;;;;;;;26.73;18.20;;;;;;;7.88;100.00;102455.69;10464409;28;20613;-76
2022/01/16 13:47:54;;;;;;;33.60;19.85;;;;;;;7.90;100.00;102461.78;10497185;28;20452;-77
2022/01/16 13:53:22;;;;;;;26.92;17.70;;;;;;;7.92;100.00;102478.69;10497037;28;20042;-75
2022/01/16 13:58:30;;;;;;;25.38;17.27;;;;;;;8.01;100.00;102477.84;10490255;28;20407;-74
2022/01/16 14:03:31;;;;;;;19.75;14.10;;;;;;;7.99;100.00;102487.06;10498062;28;20032;-74
2022/01/16 14:08:36;;;;;;;19.58;14.10;;;;;;;8.06;100.00;102491.75;10498814;28;20025;-74
2022/01/16 14:14:06;;;;;;;22.95;15.38;;;;;;;7.96;100.00;102495.44;10498449;28;20486;-74
2022/01/16 14:19:09;;;;;;;28.92;16.73;;;;;;;7.83;100.00;102498.41;10484892;28;20344;-77
2022/01/16 14:24:10;;;;;;;22.55;15.13;;;;;;;7.78;100.00;102503.38;10496932;28;20039;-79
2022/01/16 14:29:13;;;;;;;26.70;15.57;;;;;;;7.71;100.00;102503.06;10497033;28;20063;-77
2022/01/16 14:34:13;;;;;;;25.05;14.30;;;;;;;7.84;100.00;102514.44;10504154;28;20041;-80
2022/01/16 14:39:14;;;;;;;31.83;12.98;;;;;;;7.93;100.00;102534.34;10520815;28;20419;-79
2022/01/16 14:44:14;;;;;;;26.63;12.35;;;;;;;7.88;100.00;102539.28;10504555;28;20028;-78
2022/01/16 14:49:15;;;;;;;21.17;9.98;;;;;;;7.88;100.00;102542.88;10526037;28;20044;-75
2022/01/16 14:54:15;;;;;;;14.65;9.45;;;;;;;7.93;100.00;102556.78;10519805;28;20035;-78
2022/01/16 14:59:16;;;;;;;20.58;9.73;;;;;;;7.84;100.00;102554.91;10516632;28;20043;-79
2022/01/16 15:04:16;;;;;;;18.52;8.98;;;;;;;7.79;100.00;102561.72;10503849;28;20024;-79
2022/01/16 15:09:16;;;;;;;23.88;8.98;;;;;;;7.73;100.00;102562.28;10504192;28;20498;-76
2022/01/16 15:14:17;;;;;;;16.17;9.00;;;;;;;7.67;100.00;102560.97;10505681;28;20043;-79
2022/01/16 15:19:18;;;;;;;18.15;8.95;;;;;;;7.60;100.00;102568.78;10504683;28;20444;-77
2022/01/16 15:24:19;;;;;;;25.63;8.85;;;;;;;7.64;100.00;102572.03;10502939;28;20044;-77
2022/01/16 15:29:19;;;;;;;13.98;9.48;;;;;;;7.45;100.00;102570.13;10504310;28;20047;-77
2022/01/16 15:34:20;;;;;;;26.55;8.70;;;;;;;7.28;100.00;102576.16;10486203;28;20131;-77
2022/01/16 15:39:22;;;;;;;14.73;8.80;;;;;;;7.09;100.00;102574.22;10504196;28;20048;-77
2022/01/16 15:44:23;;;;;;;18.42;10.10;;;;;;;6.86;100.00;102579.78;10501532;28;20028;-78
2022/01/16 15:49:24;;;;;;;16.35;9.23;;;;;;;6.69;100.00;102575.81;10518586;28;20036;-78
2022/01/16 15:54:25;;;;;;;9.80;7.97;;;;;;;6.51;100.00;102582.78;10502671;28;20384;-78
2022/01/16 15:59:26;;;;;;;19.80;9.63;;;;;;;6.38;100.00;102587.44;10501170;28;20040;-77
2022/01/16 16:04:26;;;;;;;18.90;10.63;;;;;;;6.57;100.00;102611.84;10484021;28;20388;-77
2022/01/16 16:09:26;;;;;;;22.05;11.38;;;;;;;6.73;100.00;102625.72;10483756;28;20103;-78
2022/01/16 16:14:27;;;;;;;34.30;14.55;;;;;;;6.86;100.00;102635.44;10501584;28;20106;-78
2022/01/16 16:19:28;;;;;;;19.95;10.85;;;;;;;7.02;100.00;102649.34;10500074;28;20041;-77
2022/01/16 16:24:29;;;;;;;13.85;9.57;;;;;;;7.10;100.00;102660.28;10501149;28;20036;-77
2022/01/16 16:29:29;;;;;;;11.68;9.85;;;;;;;7.10;100.00;102671.06;10501475;28;20487;-78
2022/01/16 16:34:30;;;;;;;29.88;10.88;;;;;;;7.10;100.00;102692.63;10502936;28;20063;-78
2022/01/16 16:39:30;;;;;;;21.00;11.18;;;;;;;7.14;100.00;102706.66;10511063;28;20111;-77
2022/01/16 16:44:30;;;;;;;19.55;11.63;;;;;;;7.13;100.00;102729.22;10537132;28;20052;-79
2022/01/16 16:49:32;;;;;;;16.48;9.63;;;;;;;7.17;100.00;102741.44;10526801;28;20037;-77
2022/01/16 16:54:32;;;;;;;23.15;12.35;;;;;;;7.15;100.00;102736.19;10526403;28;20106;-78
2022/01/16 16:59:33;;;;;;;12.63;10.38;;;;;;;7.09;100.00;102747.47;10503003;28;20123;-78
2022/01/16 17:04:33;;;;;;;24.30;11.50;;;;;;;7.06;100.00;102738.81;10506917;28;20032;-79
2022/01/16 17:09:34;;;;;;;14.90;11.02;;;;;;;7.08;100.00;102740.38;10510539;28;20025;-78
2022/01/16 17:14:34;;;;;;;18.10;9.18;;;;;;;7.03;100.00;102752.53;10516245;28;20378;-77
2022/01/16 17:19:40;;;;;;;18.27;10.35;;;;;;;6.95;100.00;102758.53;10504854;28;20439;-78
2022/01/16 17:24:41;;;;;;;12.87;10.07;;;;;;;6.94;100.00;102781.09;10501415;28;20402;-79
2022/01/16 17:29:42;;;;;;;35.83;17.08;;;;;;;6.94;100.00;102773.84;10499291;28;20060;-78
2022/01/16 17:34:44;;;;;;;35.20;12.18;;;;;;;7.01;100.00;102778.72;10483289;28;20032;-77
2022/01/16 17:39:44;;;;;;;11.98;8.57;;;;;;;7.09;100.00;102787.91;10498893;28;20035;-78
2022/01/16 17:44:48;;;;;;;13.85;10.45;;;;;;;7.16;100.00;102785.53;10497969;28;20411;-77
2022/01/16 17:49:50;;;;;;;14.57;10.35;;;;;;;7.19;100.00;102788.81;10497601;28;20033;-78
2022/01/16 17:54:54;;;;;;;12.73;8.93;;;;;;;7.24;100.00;102793.81;10497235;28;20040;-77
2022/01/16 17:59:55;;;;;;;21.48;9.35;;;;;;;7.26;100.00;102777.53;10498732;28;20025;-79
2022/01/16 18:04:55;;;;;;;14.68;9.43;;;;;;;7.21;100.00;102789.56;10515331;28;20119;-78
2022/01/16 18:09:56;;;;;;;12.35;8.85;;;;;;;7.12;100.00;102795.72;10521731;28;20090;-77
2022/01/16 18:14:56;;;;;;;16.67;10.68;;;;;;;7.07;100.00;102814.09;10505497;28;20040;-77
2022/01/16 18:19:57;;;;;;;19.73;10.10;;;;;;;7.09;100.00;102824.75;10505218;28;20460;-78
2022/01/16 18:24:58;;;;;;;11.35;9.65;;;;;;;7.11;100.00;102828.16;10504479;28;20048;-78
2022/01/16 18:29:58;;;;;;;22.15;10.23;;;;;;;7.12;100.00;102836.13;10505818;28;20136;-78
2022/01/16 18:35:03;;;;;;;22.35;11.35;;;;;;;7.16;100.00;102847.50;10503433;28;20032;-77
2022/01/16 18:40:04;;;;;;;38.72;12.38;;;;;;;7.19;100.00;102861.56;10521205;28;20029;-77
2022/01/16 18:45:06;;;;;;;16.23;9.32;;;;;;;7.21;100.00;102873.09;10488226;28;20056;-78
2022/01/16 18:50:10;;;;;;;18.40;9.20;;;;;;;7.27;100.00;102882.50;10506395;28;20120;-78
2022/01/16 18:55:10;;;;;;;13.25;9.40;;;;;;;7.31;100.00;102878.56;10520730;28;20106;-77
2022/01/16 19:00:12;;;;;;;22.42;10.98;;;;;;;7.36;100.00;102881.72;10504603;28;20123;-78
2022/01/16 19:05:12;;;;;;;30.65;9.88;;;;;;;7.44;100.00;102894.59;10504498;28;20474;-78
2022/01/16 19:10:13;;;;;;;19.27;10.65;;;;;;;7.48;100.00;102893.34;10504245;28;20039;-79
2022/01/16 19:15:13;;;;;;;17.67;8.15;;;;;;;7.52;100.00;102900.16;10503779;28;20033;-78
2022/01/16 19:20:14;;;;;;;23.50;10.15;;;;;;;7.55;100.00;102904.47;10505777;28;20103;-78
2022/01/16 19:25:16;;;;;;;31.10;10.23;;;;;;;7.57;100.00;102911.44;10517619;28;20074;-79
2022/01/16 19:30:17;;;;;;;30.27;10.07;;;;;;;7.54;100.00;102921.63;10517317;28;20074;-78
2022/01/16 19:35:17;;;;;;;21.13;8.40;;;;;;;7.49;100.00;102926.53;10506820;28;20043;-78
2022/01/16 19:40:18;;;;;;;24.60;8.18;;;;;;;7.43;100.00;102922.50;10502940;28;20144;-77
2022/01/16 19:45:19;;;;;;;15.77;8.68;;;;;;;7.42;100.00;102936.97;10502724;28;20101;-77
2022/01/16 19:50:19;;;;;;;22.02;7.28;;;;;;;7.40;100.00;102947.00;10502767;28;20043;-78
2022/01/16 19:55:20;;;;;;;27.48;9.40;;;;;;;7.43;100.00;102952.16;10484981;28;20486;-76
2022/01/16 20:00:21;;;;;;;19.00;9.35;;;;;;;7.45;100.00;102944.81;10501612;28;20452;-77
2022/01/16 20:05:22;;;;;;;12.20;8.15;;;;;;;7.46;100.00;102952.75;10500762;28;20043;-77
2022/01/16 20:10:23;;;;;;;20.65;8.50;;;;;;;7.45;100.00;102956.44;10500314;28;20033;-76
2022/01/16 20:15:23;;;;;;;23.50;8.02;;;;;;;7.45;100.00;102971.75;10485073;28;20037;-77
2022/01/16 20:20:25;;;;;;;12.52;7.90;;;;;;;7.45;100.00;102974.47;10517097;28;20120;-77
2022/01/16 20:25:26;;;;;;;16.50;7.25;;;;;;;7.44;100.00;102975.44;10499379;28;20045;-77
2022/01/16 20:30:28;;;;;;;16.95;8.15;;;;;;;7.44;100.00;102997.00;10482388;28;20052;-76
2022/01/16 20:35:29;;;;;;;22.48;8.82;;;;;;;7.48;100.00;103001.16;10516763;28;20032;-77
2022/01/16 20:40:32;;;;;;;12.98;7.60;;;;;;;7.48;100.00;103001.16;10500298;28;20039;-76
2022/01/16 20:45:32;;;;;;;43.10;7.63;;;;;;;7.46;100.00;103000.41;10500645;28;20530;-77
2022/01/16 20:50:33;;;;;;;35.00;8.95;;;;;;;7.46;100.00;102995.03;10515212;28;20082;-77
2022/01/16 20:55:33;;;;;;;16.42;6.75;;;;;;;7.48;100.00;103006.56;10501705;28;20056;-77
2022/01/16 21:00:34;;;;;;;10.60;7.30;;;;;;;7.47;100.00;103002.16;10499998;28;20420;-75
2022/01/16 21:05:38;;;;;;;24.65;7.30;;;;;;;7.46;100.00;103012.06;10501068;28;20127;-77
2022/01/16 21:10:38;;;;;;;39.05;7.30;;;;;;;7.46;100.00;103020.16;10500096;28;20029;-78
2022/01/16 21:15:39;;;;;;;21.33;7.07;;;;;;;7.46;100.00;103020.16;10499507;28;20067;-77
2022/01/16 21:20:46;;;;;;;24.30;7.47;;;;;;;7.48;100.00;103029.97;10499004;28;20120;-77
2022/01/16 21:25:47;;;;;;;;;;;;;;;7.48;100.00;103025.44;10501664;28;20036;-75
2022/01/16 21:30:48;;;;;;;21.42;4.80;;;;;;;7.48;100.00;103038.06;10499714;28;19921;-75
2022/01/16 21:35:48;;;;;;;7.70;5.68;;;;;;;7.50;100.00;103036.06;10502597;28;20036;-76
2022/01/16 21:40:49;;;;;;;23.15;6.68;;;;;;;7.52;100.00;103037.66;10514611;28;20028;-75
2022/01/16 21:45:49;;;;;;;17.83;6.80;;;;;;;7.52;100.00;103037.66;10503160;28;20028;-75
2022/01/16 21:50:50;;;;;;;25.58;6.97;;;;;;;7.50;100.00;103045.03;10494814;28;20059;-77
2022/01/16 21:55:50;;;;;;;16.92;5.45;;;;;;;7.51;100.00;103060.22;10501682;28;20036;-77
2022/01/16 22:00:51;;;;;;;27.40;8.63;;;;;;;7.47;100.00;103058.78;10515410;28;20460;-75
2022/01/16 22:05:51;;;;;;;17.60;4.30;;;;;;;7.48;100.00;103065.00;10497203;28;20036;-75
2022/01/16 22:10:54;;;;;;;16.98;4.78;;;;;;;7.45;100.00;103071.50;10498124;28;20537;-77
2022/01/16 22:15:55;;;;;;;24.02;6.30;;;;;;;7.42;100.00;103069.06;10496992;28;20029;-76
2022/01/16 22:20:55;;;;;;;11.57;4.13;;;;;;;7.42;100.00;103074.44;10479986;28;20028;-76
2022/01/16 22:25:56;;;;;;;25.05;5.18;;;;;;;7.41;100.00;103078.13;10513554;28;20037;-77
2022/01/16 22:30:56;;;;;;;9.48;4.18;;;;;;;7.38;100.00;103084.63;10497650;28;20084;-77
2022/01/16 22:35:57;;;;;;;10.80;2.92;;;;;;;7.37;100.00;103095.50;10481610;28;20032;-77
2022/01/16 22:40:57;;;;;;;10.10;2.38;;;;;;;7.37;100.00;103088.31;10495859;28;20036;-75
2022/01/16 22:45:59;;;;;;;4.60;2.25;;;;;;;7.35;100.00;103111.81;10496958;28;20036;-78
2022/01/16 22:50:59;;;;;;;8.05;2.45;;;;;;;7.36;100.00;103123.44;10496387;28;20024;-76
2022/01/16 22:56:00;;;;;;;7.07;2.70;;;;;;;7.36;100.00;103123.44;10504968;28;20040;-77
2022/01/16 23:01:00;;;;;;;14.13;5.85;;;;;;;7.38;100.00;103125.06;10487462;28;20021;-77
2022/01/16 23:06:04;;;;;;;10.18;3.58;;;;;;;7.40;100.00;103112.31;10505314;28;20037;-76
2022/01/16 23:11:04;;;;;;;9.65;2.80;;;;;;;7.38;100.00;103116.97;10519651;28;20033;-76
2022/01/16 23:16:05;;;;;;;4.82;2.35;;;;;;;7.37;100.00;103117.97;10504592;28;20353;-75